< < Back
Terminal Aerodrome Forecast


Current Version              Previous Versions:   1  2  3  4  5  6  7  8  9  

Terminal Aerodrome Forecast

751
FTUS44 KOHX 261720
TAFCSV
TAF
KCSV 261720Z 2618/2718 27005KT P6SM SCT040
     FM261900 27005KT P6SM VCTS SCT045CB BKN100
     FM270100 00000KT P6SM SCT100 SCT250
     FM270600 00000KT 4SM BR SCT250=

Latest METAR

647
SAUS70 KWBC 270300 RRJ
MTRCSV
METAR KCSV 270253Z AUTO 00000KT 10SM FEW055 26/22 A3009 RMK AO2 LTG DSNT
S AND SW SLP165 T02560222 53014


USA.gov is the U.S. government's official web portal to all federal, state and local government web resources and services.